createdAt,value
2024-03-14T00:01:08.729Z,55.16
2024-03-14T00:03:38.214Z,54.82
2024-03-14T00:06:06.577Z,54.68
2024-03-14T00:08:34.444Z,54.55
2024-03-14T00:11:03.044Z,54.77
2024-03-14T00:13:31.112Z,54.74
2024-03-14T00:15:58.915Z,54.64
2024-03-14T00:18:27.056Z,54.84
2024-03-14T00:20:55.080Z,55.02
2024-03-14T00:23:24.418Z,55.96
2024-03-14T00:25:53.184Z,56.54
2024-03-14T00:28:20.979Z,57.00
2024-03-14T00:30:50.493Z,57.56
2024-03-14T00:33:18.369Z,57.99
2024-03-14T00:35:46.247Z,57.17
2024-03-14T00:38:15.250Z,57.21
2024-03-14T00:40:44.232Z,56.95
2024-03-14T00:43:15.478Z,56.94
2024-03-14T00:45:43.659Z,56.85
2024-03-14T00:48:12.305Z,56.42
2024-03-14T00:50:42.344Z,56.27
2024-03-14T00:53:10.252Z,55.65
2024-03-14T00:55:38.178Z,55.16
2024-03-14T01:08:56.650Z,55.62
2024-03-14T01:11:24.595Z,56.87
2024-03-14T01:13:52.782Z,56.51
2024-03-14T01:16:20.748Z,56.41
2024-03-14T01:18:51.214Z,56.63
2024-03-14T01:21:21.432Z,56.36
2024-03-14T01:23:49.927Z,56.31
2024-03-14T01:26:17.735Z,56.37
2024-03-14T01:28:45.583Z,56.43
2024-03-14T01:31:13.630Z,57.13
2024-03-14T01:33:41.564Z,56.83
2024-03-14T01:36:09.679Z,56.35
2024-03-14T01:38:37.736Z,56.65
2024-03-14T01:41:06.617Z,56.63
2024-03-14T01:43:34.583Z,57.52
2024-03-14T01:46:03.671Z,57.98
2024-03-14T01:48:31.573Z,57.70
2024-03-14T01:50:59.451Z,57.80
2024-03-14T01:53:27.368Z,58.10
2024-03-14T01:55:55.221Z,58.03
2024-03-14T01:58:27.539Z,57.87
2024-03-14T02:00:55.383Z,58.19
2024-03-14T02:03:23.701Z,58.88
2024-03-14T02:05:51.876Z,58.75
2024-03-14T02:08:21.224Z,58.46
2024-03-14T02:10:49.023Z,58.24
2024-03-14T02:13:16.798Z,58.07
2024-03-14T02:15:45.137Z,57.29
2024-03-14T02:18:14.320Z,57.81
2024-03-14T02:20:42.232Z,58.02
2024-03-14T02:23:10.061Z,57.68
2024-03-14T02:25:40.321Z,57.93
2024-03-14T02:28:08.206Z,57.60
2024-03-14T02:30:36.118Z,57.22
2024-03-14T02:33:04.392Z,56.94
2024-03-14T02:35:32.526Z,57.52
2024-03-14T02:38:00.396Z,57.63
2024-03-14T02:40:29.441Z,57.54
2024-03-14T02:42:57.265Z,57.20
2024-03-14T02:45:27.999Z,57.57
2024-03-14T02:47:56.046Z,57.85
2024-03-14T02:50:23.976Z,57.57
2024-03-14T02:52:51.803Z,57.06
2024-03-14T02:55:19.591Z,56.45
2024-03-14T02:57:47.533Z,56.48
2024-03-14T03:00:18.695Z,56.61
2024-03-14T03:02:46.678Z,55.99
2024-03-14T03:05:14.851Z,54.89
2024-03-14T03:07:45.045Z,56.13
2024-03-14T03:10:13.872Z,55.52
2024-03-14T03:12:41.756Z,55.31
2024-03-14T03:15:10.623Z,55.47
2024-03-14T03:17:40.193Z,55.21
2024-03-14T03:20:11.587Z,55.10
2024-03-14T03:22:57.640Z,55.89
2024-03-14T03:25:25.812Z,55.74
2024-03-14T03:27:52.962Z,55.85
2024-03-14T03:30:21.140Z,55.75
2024-03-14T03:32:48.107Z,55.90
2024-03-14T03:35:20.920Z,55.98
2024-03-14T03:37:49.047Z,55.22
2024-03-14T03:40:23.367Z,56.35
2024-03-14T03:42:52.905Z,56.25
2024-03-14T03:45:21.446Z,56.84
2024-03-14T03:47:52.711Z,55.79
2024-03-14T03:50:19.547Z,56.34
2024-03-14T03:52:47.791Z,56.70
2024-03-14T03:55:18.162Z,57.53
2024-03-14T03:57:46.433Z,58.00
2024-03-14T04:00:40.409Z,57.81
2024-03-14T04:03:10.997Z,57.20
2024-03-14T04:05:39.392Z,57.13
2024-03-14T04:08:06.842Z,57.21
2024-03-14T04:10:35.013Z,56.54
2024-03-14T04:13:01.925Z,56.10
2024-03-14T04:15:30.758Z,56.86
2024-03-14T04:17:58.906Z,57.18
2024-03-14T04:20:28.510Z,57.26
2024-03-14T04:22:56.377Z,56.70
2024-03-14T04:25:24.252Z,56.24
2024-03-14T04:28:38.388Z,56.90
2024-03-14T04:31:54.857Z,55.87
2024-03-14T04:35:10.521Z,56.11
2024-03-14T04:38:58.600Z,56.78
2024-03-14T05:18:23.403Z,58.75
2024-03-14T05:36:51.776Z,58.80
2024-03-14T05:43:47.120Z,58.23
2024-03-14T05:46:24.621Z,58.13
2024-03-14T05:48:59.738Z,58.30
2024-03-14T05:51:30.278Z,59.27
2024-03-14T05:54:07.234Z,60.51
2024-03-14T05:56:44.292Z,60.51
2024-03-14T05:59:16.665Z,59.87
2024-03-14T06:01:59.636Z,59.60
2024-03-14T06:04:43.642Z,59.61
2024-03-14T06:07:13.291Z,59.87
2024-03-14T06:09:44.994Z,59.77
2024-03-14T06:12:14.339Z,59.64
2024-03-14T06:14:47.290Z,59.49
2024-03-14T06:17:19.067Z,59.74
2024-03-14T06:19:53.710Z,59.89
2024-03-14T06:22:25.168Z,60.27
2024-03-14T06:25:07.513Z,60.73
2024-03-14T06:27:50.471Z,60.32
2024-03-14T06:30:59.873Z,60.42
2024-03-14T06:36:28.996Z,59.87
2024-03-14T06:39:12.924Z,60.06
2024-03-14T06:42:02.294Z,59.59
2024-03-14T06:44:30.453Z,59.59
2024-03-14T06:47:11.060Z,59.75
2024-03-14T06:49:44.170Z,59.52
2024-03-14T06:52:20.856Z,59.01
2024-03-14T06:55:07.523Z,58.81
2024-03-14T06:57:36.210Z,58.97
2024-03-14T07:00:13.093Z,58.69
2024-03-14T07:02:42.186Z,58.57
2024-03-14T07:05:11.282Z,58.17
2024-03-14T07:07:59.633Z,58.37
2024-03-14T07:11:12.598Z,57.70
2024-03-14T07:13:43.806Z,56.83
2024-03-14T07:16:14.802Z,55.76
2024-03-14T07:18:56.501Z,55.55
2024-03-14T07:21:27.515Z,55.79
2024-03-14T07:23:57.974Z,61.56
2024-03-14T07:26:33.690Z,63.52
2024-03-14T07:29:14.122Z,65.25
2024-03-14T07:32:00.140Z,64.90
2024-03-14T07:34:29.872Z,67.15
2024-03-14T07:37:09.825Z,65.36
2024-03-14T07:39:39.073Z,64.03
2024-03-14T07:42:07.877Z,61.78
2024-03-14T07:44:38.535Z,61.78
2024-03-14T07:47:10.630Z,59.70
2024-03-14T07:49:41.169Z,58.23
2024-03-14T07:52:12.941Z,57.67
2024-03-14T07:54:42.803Z,55.37
2024-03-14T07:57:20.666Z,55.78
2024-03-14T08:02:59.067Z,52.73
2024-03-14T08:05:35.858Z,52.99
2024-03-14T08:08:40.392Z,52.65
2024-03-14T08:14:42.346Z,50.59
2024-03-14T08:17:26.361Z,50.20
2024-03-14T08:30:41.264Z,48.27
2024-03-14T08:33:37.284Z,47.82
2024-03-14T08:46:38.932Z,50.44
2024-03-14T08:49:07.656Z,52.10
2024-03-14T08:51:39.457Z,52.28
2024-03-14T08:54:15.296Z,48.76
2024-03-14T08:56:43.207Z,46.80
2024-03-14T08:59:18.244Z,50.06
2024-03-14T09:01:47.362Z,54.94
2024-03-14T09:04:24.246Z,52.66
2024-03-14T09:06:56.855Z,52.35
2024-03-14T09:09:39.664Z,50.73
2024-03-14T09:12:18.209Z,49.53
2024-03-14T09:15:11.523Z,49.39
2024-03-14T09:17:45.707Z,50.90
2024-03-14T09:20:18.275Z,48.19
2024-03-14T09:22:46.887Z,45.17
2024-03-14T09:25:16.862Z,45.29
2024-03-14T09:27:57.456Z,43.95
2024-03-14T09:30:28.303Z,43.74
2024-03-14T09:32:58.303Z,45.11
2024-03-14T09:35:34.784Z,46.04
2024-03-14T09:38:30.655Z,45.96
2024-03-14T09:44:16.690Z,45.48
2024-03-14T09:46:48.295Z,48.46
2024-03-14T09:49:17.361Z,45.43
2024-03-14T09:51:46.384Z,46.53
2024-03-14T09:54:16.318Z,45.49
2024-03-14T09:56:50.801Z,44.20
2024-03-14T09:59:19.400Z,44.09
2024-03-14T10:01:47.856Z,48.23
2024-03-14T10:04:17.526Z,50.42
2024-03-14T10:06:54.647Z,48.52
2024-03-14T10:09:28.114Z,47.71
2024-03-14T10:12:03.908Z,47.55
2024-03-14T10:14:43.286Z,49.02
2024-03-14T10:17:11.835Z,46.95
2024-03-14T10:19:39.689Z,48.59
2024-03-14T10:22:08.178Z,47.39
2024-03-14T10:24:36.421Z,47.67
2024-03-14T10:27:06.439Z,48.56
2024-03-14T10:29:34.534Z,47.03
2024-03-14T10:32:05.671Z,47.09
2024-03-14T10:34:34.574Z,46.18
2024-03-14T10:37:02.689Z,45.98
2024-03-14T10:39:30.914Z,45.48
2024-03-14T10:41:58.820Z,44.83
2024-03-14T10:44:26.830Z,46.04
2024-03-14T10:46:54.829Z,46.31
2024-03-14T10:49:23.605Z,45.62
2024-03-14T10:51:52.992Z,46.94
2024-03-14T10:54:23.070Z,45.94
2024-03-14T10:56:50.979Z,44.22
2024-03-14T10:59:21.166Z,43.94
2024-03-14T11:01:54.252Z,43.41
2024-03-14T11:04:22.366Z,45.41
2024-03-14T11:06:50.648Z,46.99
2024-03-14T11:09:19.017Z,44.78
2024-03-14T11:11:54.758Z,43.43
2024-03-14T11:14:23.046Z,41.54
2024-03-14T11:16:50.834Z,41.35
2024-03-14T11:19:18.914Z,42.11
2024-03-14T11:21:47.001Z,41.43
2024-03-14T11:24:14.972Z,41.04
2024-03-14T11:26:44.845Z,40.60
2024-03-14T11:32:57.759Z,40.02
2024-03-14T11:36:45.446Z,42.38
2024-03-14T11:39:17.577Z,42.69
2024-03-14T11:41:46.921Z,40.91
2024-03-14T11:44:16.689Z,39.08
2024-03-14T11:46:45.586Z,38.17
2024-03-14T11:49:17.284Z,38.95
2024-03-14T11:51:48.847Z,41.22
2024-03-14T11:54:19.248Z,39.75
2024-03-14T11:56:58.250Z,38.76
2024-03-14T11:59:26.045Z,37.46
2024-03-14T12:01:57.212Z,37.22
2024-03-14T12:04:26.568Z,39.21
2024-03-14T12:06:54.450Z,40.92
2024-03-14T12:09:24.638Z,37.73
2024-03-14T12:11:52.650Z,37.27
2024-03-14T12:14:20.684Z,38.74
2024-03-14T12:16:49.748Z,40.40
2024-03-14T12:19:17.835Z,38.81
2024-03-14T12:21:46.468Z,36.66
2024-03-14T12:24:14.878Z,35.62
2024-03-14T12:26:43.493Z,34.38
2024-03-14T12:29:11.456Z,34.92
2024-03-14T12:31:39.379Z,35.26
2024-03-14T12:34:07.884Z,33.34
2024-03-14T12:39:21.878Z,33.34
2024-03-14T12:41:51.473Z,34.49
2024-03-14T12:44:25.552Z,34.57
2024-03-14T12:46:54.231Z,33.63
2024-03-14T12:49:26.557Z,32.99
2024-03-14T12:51:58.386Z,33.28
2024-03-14T12:54:36.121Z,35.95
2024-03-14T12:57:07.335Z,37.79
2024-03-14T12:59:40.668Z,37.63
2024-03-14T13:02:11.964Z,36.59
2024-03-14T13:04:44.156Z,36.59
2024-03-14T13:07:20.273Z,37.29
2024-03-14T13:10:12.368Z,37.91
2024-03-14T13:12:42.001Z,37.59
2024-03-14T13:15:19.467Z,36.64
2024-03-14T13:17:49.472Z,36.92
2024-03-14T13:20:20.073Z,36.05
2024-03-14T13:22:51.104Z,36.14
2024-03-14T13:25:19.476Z,35.94
2024-03-14T13:27:48.030Z,35.99
2024-03-14T13:30:21.158Z,35.68
2024-03-14T13:32:57.808Z,35.09
2024-03-14T13:35:32.366Z,33.76
2024-03-14T13:38:00.980Z,32.80
2024-03-14T13:40:32.617Z,33.93
2024-03-14T13:43:16.908Z,34.95
2024-03-14T13:45:53.665Z,35.05
2024-03-14T13:48:22.215Z,33.46
2024-03-14T13:50:51.703Z,32.88
2024-03-14T13:53:32.207Z,33.18
2024-03-14T13:56:01.742Z,31.95
2024-03-14T13:58:39.871Z,32.35
2024-03-14T14:01:23.402Z,32.46
2024-03-14T14:04:01.002Z,34.72
2024-03-14T14:06:33.970Z,35.43
2024-03-14T14:09:07.984Z,34.95
2024-03-14T14:11:47.182Z,32.66
2024-03-14T14:14:20.041Z,32.73
2024-03-14T14:16:50.393Z,32.45
2024-03-14T14:19:22.470Z,34.78
2024-03-14T14:21:52.882Z,34.49
2024-03-14T14:24:25.132Z,33.98
2024-03-14T14:26:58.515Z,32.56
2024-03-14T14:29:27.215Z,32.74
2024-03-14T14:31:55.457Z,31.48
2024-03-14T14:34:23.928Z,30.60
2024-03-14T14:36:52.269Z,30.98
2024-03-14T14:39:20.592Z,30.79
2024-03-14T14:41:48.367Z,32.01
2024-03-14T14:44:16.689Z,31.13
2024-03-14T14:46:45.068Z,30.71
2024-03-14T14:49:14.804Z,31.17
2024-03-14T14:51:43.663Z,31.93
2024-03-14T14:54:11.514Z,31.98
2024-03-14T14:56:45.038Z,34.92
2024-03-14T14:59:13.235Z,34.40
2024-03-14T15:01:41.073Z,33.17
2024-03-14T15:04:08.920Z,33.94
2024-03-14T15:06:39.139Z,35.73
2024-03-14T15:09:10.257Z,35.73
2024-03-14T15:11:38.731Z,34.77
2024-03-14T15:14:06.719Z,35.02
2024-03-14T15:16:36.803Z,35.12
2024-03-14T15:19:08.788Z,35.21
2024-03-14T15:21:46.689Z,34.91
2024-03-14T15:24:21.740Z,34.58
2024-03-14T15:26:56.598Z,33.18
2024-03-14T15:29:25.302Z,33.80
2024-03-14T15:31:58.174Z,33.56
2024-03-14T15:34:30.053Z,32.34
2024-03-14T15:36:58.472Z,33.00
2024-03-14T15:39:33.119Z,32.61
2024-03-14T15:42:30.545Z,32.69
2024-03-14T15:45:09.459Z,34.88
2024-03-14T15:47:41.264Z,35.17
2024-03-14T15:50:17.887Z,34.62
2024-03-14T15:52:52.409Z,36.00
2024-03-14T15:55:29.929Z,36.43
2024-03-14T15:58:12.581Z,36.22
2024-03-14T16:00:53.493Z,35.34
2024-03-14T16:03:27.487Z,34.79
2024-03-14T16:06:00.522Z,34.54
2024-03-14T16:08:55.025Z,34.66
2024-03-14T16:11:32.360Z,35.09
2024-03-14T16:14:05.004Z,33.95
2024-03-14T16:16:42.092Z,33.79
2024-03-14T16:19:27.611Z,33.29
2024-03-14T16:22:16.280Z,32.83
2024-03-14T16:25:00.742Z,33.49
2024-03-14T16:27:36.471Z,33.39
2024-03-14T16:30:05.656Z,33.97
2024-03-14T16:32:38.230Z,34.60
2024-03-14T16:35:17.346Z,35.60
2024-03-14T16:37:45.903Z,35.26
2024-03-14T16:40:13.898Z,35.11
2024-03-14T16:42:41.775Z,35.61
2024-03-14T16:45:09.802Z,35.74
2024-03-14T16:47:37.687Z,35.71
2024-03-14T16:50:05.940Z,35.56
2024-03-14T16:52:34.685Z,35.35
2024-03-14T16:55:02.506Z,35.49
2024-03-14T16:57:30.365Z,35.89
2024-03-14T16:59:58.370Z,36.19
2024-03-14T17:02:26.866Z,36.52
2024-03-14T17:04:55.590Z,36.61
2024-03-14T17:07:25.621Z,36.84
2024-03-14T17:09:53.447Z,37.27
2024-03-14T17:12:21.333Z,37.40
2024-03-14T17:14:50.905Z,37.58
2024-03-14T17:17:21.836Z,37.73
2024-03-14T17:19:50.790Z,37.92
2024-03-14T17:22:18.841Z,37.53
2024-03-14T17:24:47.375Z,37.60
2024-03-14T17:27:15.343Z,37.11
2024-03-14T17:29:43.597Z,37.36
2024-03-14T17:32:11.429Z,37.20
2024-03-14T17:34:40.020Z,37.01
2024-03-14T17:37:07.910Z,37.18
2024-03-14T17:39:35.834Z,37.38
2024-03-14T17:42:03.770Z,37.30
2024-03-14T17:44:32.061Z,37.37
2024-03-14T17:47:00.137Z,37.36
2024-03-14T17:49:30.973Z,37.50
2024-03-14T17:51:59.257Z,37.67
2024-03-14T17:54:27.238Z,37.22
2024-03-14T17:57:09.701Z,37.85
2024-03-14T17:59:38.528Z,37.96
2024-03-14T18:02:13.910Z,37.83
2024-03-14T18:04:50.149Z,38.04
2024-03-14T18:07:18.029Z,37.71
2024-03-14T18:09:46.072Z,37.92
2024-03-14T18:12:14.144Z,37.89
2024-03-14T18:14:42.170Z,37.75
2024-03-14T18:17:24.028Z,38.39
2024-03-14T18:19:55.207Z,39.17
2024-03-14T18:22:30.361Z,39.32
2024-03-14T18:25:03.977Z,39.14
2024-03-14T19:20:46.915Z,43.01
2024-03-14T19:23:51.676Z,42.97
2024-03-14T19:26:43.130Z,42.83
2024-03-14T19:36:10.584Z,42.71
2024-03-14T19:38:42.617Z,42.76
2024-03-14T19:41:11.852Z,42.52
2024-03-14T19:43:40.578Z,43.35
2024-03-14T19:46:09.170Z,43.67
2024-03-14T19:48:43.855Z,43.88
2024-03-14T19:51:13.053Z,43.68
2024-03-14T19:53:40.994Z,43.71
2024-03-14T19:56:11.350Z,43.62
2024-03-14T19:58:41.389Z,43.38
2024-03-14T20:01:09.406Z,43.92
2024-03-14T20:03:38.032Z,43.91
2024-03-14T20:06:06.835Z,44.54
2024-03-14T20:08:39.064Z,44.01
2024-03-14T20:11:09.190Z,44.37
2024-03-14T20:13:39.009Z,44.27
2024-03-14T20:16:07.122Z,44.32
2024-03-14T20:18:35.167Z,44.17
2024-03-14T20:21:06.164Z,45.12
2024-03-14T20:23:40.362Z,46.17
2024-03-14T20:26:10.270Z,45.22
2024-03-14T20:28:38.482Z,45.97
2024-03-14T20:31:06.568Z,46.83
2024-03-14T20:33:34.822Z,48.09
2024-03-14T20:36:07.918Z,48.65
2024-03-14T20:38:36.070Z,49.13
2024-03-14T20:41:06.984Z,50.64
2024-03-14T20:43:42.108Z,50.69
2024-03-14T20:46:11.785Z,49.97
2024-03-14T20:48:39.825Z,50.39
2024-03-14T20:51:07.735Z,49.91
2024-03-14T20:53:35.894Z,49.73
2024-03-14T20:56:08.398Z,50.98
2024-03-14T20:58:41.661Z,51.63
2024-03-14T21:01:14.137Z,52.02
2024-03-14T21:03:48.798Z,52.54
2024-03-14T21:06:27.357Z,52.89
2024-03-14T21:08:57.216Z,52.39
2024-03-14T21:11:25.722Z,52.16
2024-03-14T21:13:53.643Z,53.85
2024-03-14T21:16:23.306Z,54.14
2024-03-14T21:18:51.820Z,53.11
2024-03-14T21:21:21.864Z,52.50
2024-03-14T21:23:49.907Z,51.56
2024-03-14T21:26:17.888Z,51.50
2024-03-14T21:28:45.693Z,50.97
2024-03-14T21:31:14.730Z,51.13
2024-03-14T21:33:42.841Z,50.81
2024-03-14T21:36:11.740Z,50.23
2024-03-14T21:38:39.634Z,50.91
2024-03-14T21:41:07.616Z,50.13
2024-03-14T21:43:36.650Z,50.09
2024-03-14T21:46:06.452Z,49.46
2024-03-14T21:48:34.482Z,49.64
2024-03-14T21:51:03.621Z,49.79
2024-03-14T21:53:31.895Z,50.05
2024-03-14T21:56:00.057Z,51.01
2024-03-14T21:58:32.025Z,50.38
2024-03-14T22:01:07.126Z,50.05
2024-03-14T22:03:37.273Z,50.09
2024-03-14T22:06:09.115Z,50.84
2024-03-14T22:08:37.337Z,50.26
2024-03-14T22:11:05.433Z,50.30
2024-03-14T22:13:33.396Z,50.28
2024-03-14T22:16:01.348Z,50.71
2024-03-14T22:18:32.396Z,50.95
2024-03-14T22:21:00.228Z,51.28
2024-03-14T22:23:28.044Z,50.91
2024-03-14T22:25:58.414Z,52.49
2024-03-14T22:28:26.192Z,52.20
2024-03-14T22:31:00.055Z,51.34
2024-03-14T22:33:35.609Z,51.10
2024-03-14T22:36:04.649Z,50.96
2024-03-14T22:38:32.740Z,51.72
2024-03-14T22:41:07.408Z,51.28
2024-03-14T22:43:38.696Z,50.67
2024-03-14T22:46:06.520Z,50.98
2024-03-14T22:48:34.538Z,50.66
2024-03-14T22:51:02.567Z,50.63
2024-03-14T22:53:32.182Z,51.35
2024-03-14T22:56:00.442Z,50.96
2024-03-14T22:58:29.014Z,50.79
2024-03-14T23:00:58.510Z,51.08
2024-03-14T23:03:29.138Z,51.11
2024-03-14T23:05:57.142Z,51.30
2024-03-14T23:08:26.611Z,52.47
2024-03-14T23:10:54.779Z,54.37
2024-03-14T23:13:25.811Z,53.53
2024-03-14T23:15:54.054Z,53.24
2024-03-14T23:18:22.091Z,52.60
2024-03-14T23:20:52.820Z,52.15
2024-03-14T23:23:21.167Z,51.94
2024-03-14T23:25:49.359Z,51.80
2024-03-14T23:28:18.481Z,52.64
2024-03-14T23:30:50.097Z,52.40
2024-03-14T23:33:18.609Z,51.95
2024-03-14T23:35:47.666Z,51.95
2024-03-14T23:38:15.556Z,51.78
2024-03-14T23:40:43.347Z,52.05
2024-03-14T23:43:14.735Z,52.50
2024-03-14T23:45:42.928Z,51.72
2024-03-14T23:48:13.218Z,52.20
2024-03-14T23:50:41.143Z,51.88
2024-03-14T23:53:08.973Z,51.96
2024-03-14T23:55:38.150Z,51.69
2024-03-14T23:58:07.346Z,51.56
